createdAt,value
2019-01-18T00:02:24.685Z,94987.48
2019-01-18T00:04:58.003Z,94998.35
2019-01-18T00:07:31.065Z,94998.05
2019-01-18T00:10:04.181Z,95000.45
2019-01-18T00:12:37.469Z,95002.49
2019-01-18T00:15:10.659Z,95009.53
2019-01-18T00:17:56.822Z,95009.33
2019-01-18T00:20:42.256Z,95007.13
2019-01-18T00:23:29.023Z,95009.74
2019-01-18T00:26:08.584Z,95013.69
2019-01-18T00:28:41.340Z,95014.57
2019-01-18T00:31:15.123Z,95014.37
2019-01-18T00:33:48.184Z,95018.72
2019-01-18T00:36:20.362Z,95022.72
2019-01-18T00:38:53.602Z,95016.25
2019-01-18T00:41:26.818Z,95017.54
2019-01-18T00:43:59.930Z,95018.84
2019-01-18T00:46:33.849Z,95024.63
2019-01-18T00:49:07.899Z,95015.20
2019-01-18T00:51:41.177Z,95011.88
2019-01-18T00:54:14.459Z,95014.66
2019-01-18T00:56:48.180Z,95012.64
2019-01-18T00:59:21.545Z,95018.82
2019-01-18T01:01:54.603Z,95016.63
2019-01-18T01:04:27.285Z,95013.73
2019-01-18T01:07:00.440Z,95009.02
2019-01-18T01:09:32.450Z,95007.64
2019-01-18T01:12:07.184Z,95006.09
2019-01-18T01:14:40.746Z,95002.61
2019-01-18T01:17:26.363Z,95000.25
2019-01-18T01:20:09.308Z,94995.53
2019-01-18T01:22:42.523Z,94992.34
2019-01-18T01:25:15.560Z,94992.63
2019-01-18T01:27:47.731Z,94992.69
2019-01-18T01:30:22.427Z,94993.16
2019-01-18T01:32:56.231Z,94978.55
2019-01-18T01:35:29.641Z,94984.47
2019-01-18T01:38:02.736Z,94987.59
2019-01-18T01:40:34.514Z,94975.20
2019-01-18T01:43:07.982Z,94981.05
2019-01-18T01:45:41.075Z,94972.95
2019-01-18T01:48:14.348Z,94975.48
2019-01-18T01:50:47.531Z,94967.70
2019-01-18T01:53:20.249Z,94968.24
2019-01-18T01:55:53.529Z,94963.20
2019-01-18T01:58:26.818Z,94959.20
2019-01-18T02:01:00.222Z,94956.22
2019-01-18T02:03:33.331Z,94958.94
2019-01-18T02:06:07.125Z,94960.52
2019-01-18T02:08:40.006Z,94955.26
2019-01-18T02:11:12.687Z,94960.69
2019-01-18T02:13:45.802Z,94955.73
2019-01-18T02:16:18.950Z,94957.64
2019-01-18T02:19:01.162Z,94956.80
2019-01-18T02:21:34.334Z,94959.41
2019-01-18T02:24:07.778Z,94953.20
2019-01-18T02:26:41.987Z,94964.45
2019-01-18T02:29:14.724Z,94966.34
2019-01-18T02:31:47.739Z,94967.33
2019-01-18T02:34:19.326Z,94970.00
2019-01-18T02:36:52.591Z,94966.72
2019-01-18T02:39:25.736Z,94961.06
2019-01-18T02:41:59.000Z,94963.67
2019-01-18T02:44:32.204Z,94967.33
2019-01-18T02:47:05.193Z,94965.54
2019-01-18T02:49:37.264Z,94962.11
2019-01-18T02:52:09.784Z,94964.50
2019-01-18T02:54:42.670Z,94966.73
2019-01-18T02:57:16.118Z,94963.37
2019-01-18T02:59:49.938Z,94969.34
2019-01-18T03:02:23.036Z,94963.97
2019-01-18T03:04:55.890Z,94966.52
2019-01-18T03:07:29.032Z,94966.72
2019-01-18T03:10:03.255Z,94964.34
2019-01-18T03:12:36.278Z,94965.84
2019-01-18T03:15:09.193Z,94963.36
2019-01-18T03:17:53.544Z,94965.47
2019-01-18T03:20:39.252Z,94955.73
2019-01-18T03:23:19.639Z,94957.45
2019-01-18T03:25:52.738Z,94955.92
2019-01-18T03:28:26.286Z,94950.00
2019-01-18T03:30:59.430Z,94949.50
2019-01-18T03:33:32.566Z,94948.84
2019-01-18T03:36:06.055Z,94949.31
2019-01-18T03:38:40.177Z,94953.84
2019-01-18T03:41:13.556Z,94944.88
2019-01-18T03:43:47.703Z,94951.08
2019-01-18T03:46:21.043Z,94946.39
2019-01-18T03:48:54.448Z,94944.25
2019-01-18T03:51:27.576Z,94940.92
2019-01-18T03:54:01.545Z,94943.36
2019-01-18T03:56:35.337Z,94944.14
2019-01-18T03:59:09.335Z,94944.78
2019-01-18T04:01:42.517Z,94939.47
2019-01-18T04:04:16.701Z,94937.78
2019-01-18T04:06:51.073Z,94939.91
2019-01-18T04:09:24.283Z,94937.38
2019-01-18T04:11:57.917Z,94943.55
2019-01-18T04:14:31.203Z,94950.14
2019-01-18T04:17:05.002Z,94961.14
2019-01-18T04:19:39.825Z,94949.14
2019-01-18T04:22:13.668Z,94945.20
2019-01-18T04:24:47.613Z,94943.83
2019-01-18T04:27:21.693Z,94949.91
2019-01-18T04:29:56.115Z,94960.27
2019-01-18T04:32:29.855Z,94956.39
2019-01-18T04:35:03.959Z,94953.43
2019-01-18T04:37:37.524Z,94954.72
2019-01-18T04:40:22.353Z,94956.67
2019-01-18T04:42:56.318Z,94959.06
2019-01-18T04:45:30.358Z,94962.72
2019-01-18T04:48:04.106Z,94965.20
2019-01-18T04:50:37.991Z,94964.43
2019-01-18T04:53:11.453Z,94964.74
2019-01-18T04:55:45.418Z,94959.48
2019-01-18T04:58:19.035Z,94955.22
2019-01-18T05:00:52.629Z,94959.73
2019-01-18T05:03:27.130Z,94965.63
2019-01-18T05:06:01.049Z,94958.37
2019-01-18T05:08:34.675Z,94961.77
2019-01-18T05:11:09.090Z,94962.00
2019-01-18T05:13:42.738Z,94963.39
2019-01-18T05:16:16.315Z,94964.81
2019-01-18T05:18:59.692Z,94956.85
2019-01-18T05:21:36.421Z,94964.85
2019-01-18T05:24:09.604Z,94972.75
2019-01-18T05:26:43.400Z,94964.99
2019-01-18T05:29:17.675Z,94965.94
2019-01-18T05:31:51.259Z,94968.89
2019-01-18T05:34:25.127Z,94970.42
2019-01-18T05:36:58.994Z,94970.95
2019-01-18T05:39:35.276Z,94971.60
2019-01-18T05:42:09.488Z,94967.33
2019-01-18T05:44:44.787Z,94972.36
2019-01-18T05:47:19.607Z,94973.91
2019-01-18T05:49:53.591Z,94972.03
2019-01-18T05:52:29.141Z,94978.30
2019-01-18T05:55:03.363Z,94980.63
2019-01-18T05:57:37.510Z,94971.60
2019-01-18T06:00:54.965Z,94985.38
2019-01-18T06:03:22.545Z,94980.84
2019-01-18T06:05:56.046Z,94981.52
2019-01-18T06:08:29.235Z,94982.09
2019-01-18T06:11:02.784Z,94988.05
2019-01-18T06:13:37.653Z,94981.09
2019-01-18T06:16:10.640Z,94980.84
2019-01-18T06:18:56.685Z,94980.32
2019-01-18T06:21:42.339Z,94975.30
2019-01-18T06:24:25.967Z,94983.28
2019-01-18T06:27:07.531Z,94973.59
2019-01-18T06:29:40.822Z,94978.40
2019-01-18T06:32:14.105Z,94982.91
2019-01-18T06:34:47.391Z,94980.64
2019-01-18T06:37:22.498Z,94975.16
2019-01-18T06:39:56.809Z,94981.50
2019-01-18T06:42:29.875Z,94978.32
2019-01-18T06:45:02.759Z,94988.97
2019-01-18T06:47:35.974Z,94994.77
2019-01-18T06:50:12.645Z,94996.25
2019-01-18T06:52:46.185Z,94992.17
2019-01-18T06:55:19.513Z,94996.84
2019-01-18T06:57:53.053Z,94998.39
2019-01-18T07:00:31.208Z,94993.14
2019-01-18T07:03:09.834Z,94989.66
2019-01-18T07:05:43.389Z,94992.17
2019-01-18T07:08:16.660Z,94983.03
2019-01-18T07:10:50.245Z,94983.20
2019-01-18T07:13:23.465Z,94983.11
2019-01-18T07:15:56.551Z,94981.50
2019-01-18T07:18:37.429Z,94983.91
2019-01-18T07:21:10.151Z,94981.09
2019-01-18T07:23:43.264Z,94985.63
2019-01-18T07:26:17.168Z,94992.73
2019-01-18T07:28:51.812Z,94983.53
2019-01-18T07:31:25.340Z,94982.19
2019-01-18T07:33:58.578Z,94983.64
2019-01-18T07:36:31.859Z,94988.48
2019-01-18T07:39:06.358Z,94985.06
2019-01-18T07:41:39.674Z,94979.95
2019-01-18T07:44:13.174Z,94983.11
2019-01-18T07:46:48.793Z,94978.23
2019-01-18T07:49:22.316Z,94967.75
2019-01-18T07:51:55.906Z,94967.75
2019-01-18T07:54:29.205Z,94966.75
2019-01-18T07:57:01.509Z,94971.09
2019-01-18T07:59:34.776Z,94971.61
2019-01-18T08:02:08.452Z,94965.54
2019-01-18T08:04:41.935Z,94973.89
2019-01-18T08:07:15.162Z,94976.91
2019-01-18T08:09:48.308Z,94981.48
2019-01-18T08:12:21.545Z,94983.78
2019-01-18T08:14:54.081Z,94971.69
2019-01-18T08:17:27.730Z,94976.00
2019-01-18T08:20:11.037Z,94973.55
2019-01-18T08:22:44.380Z,94974.48
2019-01-18T08:25:17.827Z,94977.73
2019-01-18T08:27:51.748Z,94979.69
2019-01-18T08:30:26.618Z,94982.16
2019-01-18T08:33:00.031Z,94978.36
2019-01-18T08:35:33.629Z,94983.36
2019-01-18T08:38:07.128Z,94991.42
2019-01-18T08:40:42.306Z,94990.16
2019-01-18T08:43:17.250Z,94989.31
2019-01-18T08:45:52.845Z,94992.34
2019-01-18T08:48:26.574Z,94998.67
2019-01-18T08:51:00.631Z,94997.71
2019-01-18T08:53:33.784Z,94997.17
2019-01-18T08:56:06.338Z,94996.65
2019-01-18T08:58:39.488Z,94996.59
2019-01-18T09:01:13.061Z,95000.74
2019-01-18T09:03:46.800Z,95000.09
2019-01-18T09:06:19.725Z,94999.00
2019-01-18T09:08:53.420Z,94999.09
2019-01-18T09:11:26.870Z,94990.95
2019-01-18T09:14:00.175Z,94990.94
2019-01-18T09:16:32.269Z,94989.44
2019-01-18T09:19:06.473Z,94987.96
2019-01-18T09:21:39.794Z,94981.84
2019-01-18T09:24:13.313Z,94984.52
2019-01-18T09:26:45.988Z,94973.81
2019-01-18T09:29:19.206Z,94975.08
2019-01-18T09:31:52.502Z,94967.17
2019-01-18T09:34:24.737Z,94958.47
2019-01-18T09:36:57.767Z,94956.47
2019-01-18T09:39:31.167Z,94955.70
2019-01-18T09:42:04.569Z,94965.30
2019-01-18T09:44:38.289Z,94952.13
2019-01-18T09:47:11.582Z,94945.91
2019-01-18T09:49:45.127Z,94935.81
2019-01-18T09:52:18.147Z,94930.64
2019-01-18T09:54:51.764Z,94928.72
2019-01-18T09:57:24.831Z,94919.13
2019-01-18T09:59:58.221Z,94926.27
2019-01-18T10:02:33.845Z,94919.88
2019-01-18T10:05:08.185Z,94913.89
2019-01-18T10:07:41.283Z,94913.75
2019-01-18T10:10:16.778Z,94904.44
2019-01-18T10:12:53.318Z,94902.75
2019-01-18T10:15:32.669Z,94898.46
2019-01-18T10:18:06.507Z,94894.06
2019-01-18T10:20:49.027Z,94893.17
2019-01-18T10:23:22.217Z,94879.33
2019-01-18T10:25:56.732Z,94886.22
2019-01-18T10:28:29.942Z,94889.25
2019-01-18T10:31:02.425Z,94886.09
2019-01-18T10:33:35.789Z,94882.92
2019-01-18T10:36:07.883Z,94879.29
2019-01-18T10:38:41.061Z,94879.59
2019-01-18T10:41:13.378Z,94877.75
2019-01-18T10:43:46.541Z,94869.62
2019-01-18T10:46:19.984Z,94864.42
2019-01-18T10:48:53.251Z,94868.53
2019-01-18T10:51:27.078Z,94855.33
2019-01-18T10:54:00.185Z,94856.98
2019-01-18T10:56:36.357Z,94850.06
2019-01-18T10:59:09.348Z,94845.97
2019-01-18T11:01:42.788Z,94841.37
2019-01-18T11:04:15.970Z,94837.72
2019-01-18T11:06:49.611Z,94839.19
2019-01-18T11:09:22.831Z,94837.31
2019-01-18T11:11:55.125Z,94844.34
2019-01-18T11:14:28.899Z,94839.44
2019-01-18T11:17:01.925Z,94834.49
2019-01-18T11:19:41.549Z,94831.33
2019-01-18T11:22:16.262Z,94830.06
2019-01-18T11:24:49.923Z,94828.08
2019-01-18T11:27:23.781Z,94829.37
2019-01-18T11:29:56.775Z,94835.92
2019-01-18T11:32:30.319Z,94832.63
2019-01-18T11:35:04.967Z,94826.40
2019-01-18T11:37:38.162Z,94827.59
2019-01-18T11:40:12.294Z,94819.30
2019-01-18T11:42:46.103Z,94809.97
2019-01-18T11:45:19.321Z,94809.05
2019-01-18T11:47:51.865Z,94816.59
2019-01-18T11:50:25.972Z,94808.91
2019-01-18T11:52:59.862Z,94805.34
2019-01-18T11:55:32.552Z,94811.49
2019-01-18T11:58:05.911Z,94815.59
2019-01-18T12:00:39.390Z,94810.30
2019-01-18T12:03:13.839Z,94808.80
2019-01-18T12:05:49.034Z,94805.05
2019-01-18T12:08:22.693Z,94798.58
2019-01-18T12:10:59.095Z,94792.70
2019-01-18T12:13:32.711Z,94795.69
2019-01-18T12:16:06.262Z,94791.48
2019-01-18T12:18:40.861Z,94796.36
2019-01-18T12:21:26.912Z,94792.55
2019-01-18T12:24:04.823Z,94791.91
2019-01-18T12:26:37.843Z,94792.09
2019-01-18T12:29:10.842Z,94795.63
2019-01-18T12:31:44.261Z,94804.88
2019-01-18T12:34:16.609Z,94798.27
2019-01-18T12:36:49.981Z,94803.14
2019-01-18T12:39:22.266Z,94803.42
2019-01-18T12:41:55.401Z,94803.63
2019-01-18T12:44:28.857Z,94800.16
2019-01-18T12:47:02.199Z,94803.39
2019-01-18T12:49:36.347Z,94806.49
2019-01-18T12:52:09.051Z,94808.84
2019-01-18T12:54:42.079Z,94796.05
2019-01-18T12:57:15.711Z,94798.17
2019-01-18T12:59:49.093Z,94792.12
2019-01-18T13:02:22.453Z,94799.79
2019-01-18T13:04:55.823Z,94799.95
2019-01-18T13:07:29.792Z,94792.59
2019-01-18T13:10:03.635Z,94796.45
2019-01-18T13:12:37.133Z,94799.89
2019-01-18T13:15:20.801Z,94790.36
2019-01-18T13:17:54.073Z,94794.34
2019-01-18T13:20:27.542Z,94799.98
2019-01-18T13:23:00.740Z,94808.38
2019-01-18T13:25:34.089Z,94807.12
2019-01-18T13:28:07.729Z,94806.62
2019-01-18T13:30:40.930Z,94806.14
2019-01-18T13:33:12.993Z,94806.16
2019-01-18T13:35:46.041Z,94803.39
2019-01-18T13:38:19.550Z,94805.81
2019-01-18T13:40:52.250Z,94808.13
2019-01-18T13:43:26.121Z,94807.03
2019-01-18T13:45:59.105Z,94801.21
2019-01-18T13:48:32.483Z,94803.48
2019-01-18T13:51:06.487Z,94802.20
2019-01-18T13:53:39.943Z,94796.25
2019-01-18T13:56:12.627Z,94787.09
2019-01-18T13:58:45.791Z,94797.19
2019-01-18T14:01:19.105Z,94795.47
2019-01-18T14:03:51.552Z,94798.94
2019-01-18T14:06:25.728Z,94792.80
2019-01-18T14:08:59.207Z,94795.14
2019-01-18T14:11:32.971Z,94790.02
2019-01-18T14:14:06.826Z,94787.89
2019-01-18T14:16:40.170Z,94786.50
2019-01-18T14:19:13.468Z,94789.02
2019-01-18T14:21:56.410Z,94789.32
2019-01-18T14:24:37.913Z,94789.83
2019-01-18T14:27:11.406Z,94785.30
2019-01-18T14:29:44.433Z,94779.63
2019-01-18T14:32:17.581Z,94788.06
2019-01-18T14:34:49.874Z,94796.20
2019-01-18T14:37:24.643Z,94802.89
2019-01-18T14:39:57.613Z,94803.69
2019-01-18T14:42:31.315Z,94806.64
2019-01-18T14:45:05.396Z,94806.24
2019-01-18T14:47:38.985Z,94796.64
2019-01-18T14:50:15.806Z,94804.01
2019-01-18T14:52:49.837Z,94809.91
2019-01-18T14:55:23.305Z,94808.91
2019-01-18T14:57:58.018Z,94809.77
2019-01-18T15:00:37.027Z,94811.39
2019-01-18T15:03:10.378Z,94807.22
2019-01-18T15:05:44.021Z,94816.94
2019-01-18T15:08:17.309Z,94809.90
2019-01-18T15:10:50.891Z,94816.92
2019-01-18T15:13:25.480Z,94823.89
2019-01-18T15:15:58.703Z,94827.82
2019-01-18T15:18:31.365Z,94831.80
2019-01-18T15:21:17.781Z,94826.88
2019-01-18T15:24:03.654Z,94833.97
2019-01-18T15:26:49.275Z,94827.77
2019-01-18T15:29:34.837Z,94826.33
2019-01-18T15:32:28.725Z,94836.74
2019-01-18T15:35:14.701Z,94829.58
2019-01-18T15:37:59.715Z,94835.63
2019-01-18T15:40:47.688Z,94836.07
2019-01-18T15:43:35.012Z,94843.77
2019-01-18T15:46:09.850Z,94837.38
2019-01-18T15:48:43.080Z,94838.41
2019-01-18T15:51:15.887Z,94838.04
2019-01-18T15:53:48.491Z,94843.50
2019-01-18T15:56:23.171Z,94840.39
2019-01-18T15:58:57.962Z,94830.20
2019-01-18T16:01:31.665Z,94833.17
2019-01-18T16:04:05.131Z,94834.37
2019-01-18T16:06:38.973Z,94836.49
2019-01-18T16:09:12.428Z,94838.33
2019-01-18T16:11:46.093Z,94838.19
2019-01-18T16:14:19.413Z,94835.22
2019-01-18T16:16:54.614Z,94841.30
2019-01-18T16:19:27.833Z,94841.92
2019-01-18T16:22:08.737Z,94838.50
2019-01-18T16:24:42.398Z,94832.34
2019-01-18T16:27:15.566Z,94832.41
2019-01-18T16:29:48.652Z,94827.39
2019-01-18T16:32:22.397Z,94839.25
2019-01-18T16:34:55.179Z,94839.25
2019-01-18T16:37:28.885Z,94838.84
2019-01-18T16:40:02.695Z,94839.56
2019-01-18T16:42:36.126Z,94845.38
2019-01-18T16:45:11.031Z,94840.91
2019-01-18T16:47:45.654Z,94850.20
2019-01-18T16:50:19.129Z,94843.86
2019-01-18T16:52:52.302Z,94846.09
2019-01-18T16:55:27.864Z,94848.59
2019-01-18T16:58:01.496Z,94845.55
2019-01-18T17:00:38.662Z,94846.92
2019-01-18T17:03:13.187Z,94849.48
2019-01-18T17:05:47.658Z,94853.22
2019-01-18T17:08:21.614Z,94850.35
2019-01-18T17:10:54.955Z,94851.92
2019-01-18T17:13:31.285Z,94850.44
2019-01-18T17:16:06.178Z,94846.08
2019-01-18T17:18:40.594Z,94843.20
2019-01-18T17:21:20.804Z,94848.11
2019-01-18T17:23:54.302Z,94849.31
2019-01-18T17:26:27.822Z,94847.70
2019-01-18T17:29:01.880Z,94843.41
2019-01-18T17:31:36.730Z,94843.16
2019-01-18T17:34:09.521Z,94842.42
2019-01-18T17:36:59.390Z,94842.52
2019-01-18T17:39:48.843Z,94842.42
2019-01-18T17:43:14.255Z,94848.81
2019-01-18T17:46:05.035Z,94841.34
2019-01-18T17:49:21.152Z,94845.40
2019-01-18T17:52:48.013Z,94841.66
2019-01-18T17:55:42.817Z,94850.36
2019-01-18T17:59:02.695Z,94849.86
2019-01-18T18:01:48.226Z,94854.23
2019-01-18T18:04:55.237Z,94858.91
2019-01-18T18:08:02.029Z,94858.39
2019-01-18T18:11:21.659Z,94855.86
2019-01-18T18:14:37.775Z,94849.73
2019-01-18T18:17:24.548Z,94846.80
2019-01-18T18:20:32.491Z,94842.88
2019-01-18T18:23:33.931Z,94841.01
2019-01-18T18:26:50.626Z,94847.48
2019-01-18T18:30:20.044Z,94843.01
2019-01-18T18:33:16.146Z,94853.25
2019-01-18T18:36:32.725Z,94853.25
2019-01-18T18:39:43.360Z,94855.58
2019-01-18T18:42:47.701Z,94850.58
2019-01-18T18:45:58.699Z,94846.66
2019-01-18T18:49:12.973Z,94854.13
2019-01-18T18:52:24.226Z,94849.52
2019-01-18T18:55:55.636Z,94853.81
2019-01-18T18:59:13.595Z,94858.11
2019-01-18T19:02:13.795Z,94856.48
2019-01-18T19:05:27.771Z,94858.67
2019-01-18T19:08:38.467Z,94855.84
2019-01-18T19:11:49.161Z,94857.11
2019-01-18T19:15:11.933Z,94849.95
2019-01-18T19:18:07.263Z,94852.22
2019-01-18T19:21:02.334Z,94858.31
2019-01-18T19:24:15.525Z,94860.11
2019-01-18T19:27:20.235Z,94857.69
2019-01-18T19:30:20.848Z,94862.50
2019-01-18T19:33:28.556Z,94862.91
2019-01-18T19:36:27.467Z,94862.13
2019-01-18T19:39:32.375Z,94862.40
2019-01-18T19:42:37.079Z,94856.67
2019-01-18T19:45:24.101Z,94862.30
2019-01-18T19:48:38.445Z,94878.09
2019-01-18T19:51:50.870Z,94879.30
2019-01-18T19:55:09.228Z,94873.67
2019-01-18T19:58:22.270Z,94874.97
2019-01-18T20:01:34.284Z,94877.41
2019-01-18T20:04:40.542Z,94884.44
2019-01-18T20:07:38.805Z,94887.23
2019-01-18T20:10:43.239Z,94894.71
2019-01-18T20:13:56.168Z,94898.28
2019-01-18T20:17:02.961Z,94901.70
2019-01-18T20:20:04.791Z,94909.91
2019-01-18T20:22:49.577Z,94913.14
2019-01-18T20:25:36.346Z,94908.55
2019-01-18T20:28:22.531Z,94914.19
2019-01-18T20:31:07.221Z,94915.70
2019-01-18T20:34:39.771Z,94912.01
2019-01-18T20:37:25.420Z,94915.27
2019-01-18T20:40:28.017Z,94914.38
2019-01-18T20:43:40.276Z,94916.13
2019-01-18T20:46:41.438Z,94916.00
2019-01-18T20:49:42.231Z,94919.31
2019-01-18T20:52:55.772Z,94919.23
2019-01-18T20:56:06.901Z,94926.95
2019-01-18T20:59:05.581Z,94928.52
2019-01-18T21:02:07.900Z,94929.47
2019-01-18T21:05:01.453Z,94935.50
2019-01-18T21:07:53.900Z,94931.40
2019-01-18T21:10:48.064Z,94929.38
2019-01-18T21:14:16.583Z,94944.70
2019-01-18T21:17:33.089Z,94933.08
2019-01-18T21:20:52.917Z,94929.88
2019-01-18T21:23:38.788Z,94930.83
2019-01-18T21:26:25.002Z,94928.58
2019-01-18T21:29:24.021Z,94932.27
2019-01-18T21:32:35.403Z,94928.97
2019-01-18T21:35:44.351Z,94924.42
2019-01-18T21:39:09.897Z,94929.52
2019-01-18T21:42:13.889Z,94936.68
2019-01-18T21:45:04.286Z,94943.22
2019-01-18T21:47:56.571Z,94943.40
2019-01-18T21:51:11.357Z,94939.92
2019-01-18T21:54:14.487Z,94940.41
2019-01-18T21:57:27.857Z,94942.09
2019-01-18T22:00:31.309Z,94945.33
2019-01-18T22:03:34.648Z,94951.73
2019-01-18T22:06:32.499Z,94947.89
2019-01-18T22:09:36.230Z,94948.89
2019-01-18T22:12:39.416Z,94943.84
2019-01-18T22:15:55.528Z,94942.89
2019-01-18T22:18:55.599Z,94942.27
2019-01-18T22:22:02.752Z,94935.98
2019-01-18T22:25:16.184Z,94937.30
2019-01-18T22:28:29.920Z,94943.83
2019-01-18T22:31:53.387Z,94944.07
2019-01-18T22:35:00.593Z,94947.27
2019-01-18T22:37:55.093Z,94944.34
2019-01-18T22:41:18.526Z,94942.64
2019-01-18T22:44:14.564Z,94940.20
2019-01-18T22:47:22.660Z,94935.82
2019-01-18T22:50:22.725Z,94940.78
2019-01-18T22:53:23.151Z,94932.13
2019-01-18T22:56:40.229Z,94931.32
2019-01-18T22:59:54.760Z,94937.31
2019-01-18T23:02:53.833Z,94936.19
2019-01-18T23:06:04.750Z,94931.40
2019-01-18T23:09:09.633Z,94937.31
2019-01-18T23:12:07.800Z,94934.30
2019-01-18T23:15:20.070Z,94942.23
2019-01-18T23:18:17.640Z,94937.05
2019-01-18T23:21:17.539Z,94939.84
2019-01-18T23:24:02.788Z,94943.21
2019-01-18T23:26:48.685Z,94939.66
2019-01-18T23:29:43.515Z,94942.27
2019-01-18T23:32:29.491Z,94944.77
2019-01-18T23:35:21.070Z,94954.11
2019-01-18T23:38:39.044Z,94950.69
2019-01-18T23:41:49.176Z,94963.37
2019-01-18T23:44:56.323Z,94957.64
2019-01-18T23:48:04.140Z,94960.84
2019-01-18T23:50:53.513Z,94970.80
2019-01-18T23:53:44.502Z,94970.48
2019-01-18T23:56:39.288Z,94973.41
2019-01-18T23:59:39.203Z,94972.15
